createdAt,value
2023-04-17T00:00:39.537Z,23.07
2023-04-17T00:03:08.213Z,24.80
2023-04-17T00:05:36.782Z,22.67
2023-04-17T00:08:05.213Z,22.83
2023-04-17T00:10:33.726Z,23.73
2023-04-17T00:13:02.452Z,23.63
2023-04-17T00:15:31.089Z,22.90
2023-04-17T00:18:01.066Z,24.73
2023-04-17T00:20:29.520Z,25.10
2023-04-17T00:22:58.233Z,25.00
2023-04-17T00:25:26.870Z,24.37
2023-04-17T00:27:55.443Z,26.00
2023-04-17T00:30:23.890Z,23.87
2023-04-17T00:32:54.818Z,25.47
2023-04-17T00:35:24.705Z,26.10
2023-04-17T00:37:53.444Z,25.50
2023-04-17T00:40:22.081Z,27.30
2023-04-17T00:42:56.264Z,27.20
2023-04-17T00:45:24.699Z,27.93
2023-04-17T00:47:56.822Z,27.83
2023-04-17T00:50:30.637Z,27.37
2023-04-17T00:53:01.224Z,28.17
2023-04-17T00:55:32.431Z,28.77
2023-04-17T00:58:01.449Z,27.63
2023-04-17T01:00:30.344Z,27.60
2023-04-17T01:02:59.979Z,26.77
2023-04-17T01:05:31.041Z,27.73
2023-04-17T01:08:00.140Z,29.53
2023-04-17T01:10:28.877Z,29.43
2023-04-17T01:13:05.022Z,28.93
2023-04-17T01:15:33.934Z,30.33
2023-04-17T01:18:03.331Z,28.83
2023-04-17T01:20:34.442Z,29.77
2023-04-17T01:23:03.525Z,31.00
2023-04-17T01:25:33.959Z,29.87
2023-04-17T01:28:02.939Z,30.40
2023-04-17T01:30:31.872Z,31.00
2023-04-17T01:33:01.150Z,31.03
2023-04-17T01:35:30.025Z,29.73
2023-04-17T01:37:58.947Z,32.10
2023-04-17T01:40:27.895Z,32.13
2023-04-17T01:42:58.475Z,31.57
2023-04-17T01:45:27.448Z,30.70
2023-04-17T01:47:56.558Z,30.13
2023-04-17T01:50:25.341Z,29.00
2023-04-17T01:52:55.451Z,31.10
2023-04-17T01:55:24.417Z,31.97
2023-04-17T01:57:53.539Z,32.30
2023-04-17T02:00:24.657Z,30.97
2023-04-17T02:02:53.776Z,31.03
2023-04-17T02:05:22.748Z,28.63
2023-04-17T02:07:52.370Z,30.53
2023-04-17T02:10:21.348Z,33.07
2023-04-17T02:12:50.437Z,31.60
2023-04-17T02:15:19.548Z,31.23
2023-04-17T02:17:50.334Z,31.10
2023-04-17T02:20:19.303Z,30.63
2023-04-17T02:22:48.288Z,32.30
2023-04-17T02:25:17.290Z,31.97
2023-04-17T02:27:46.588Z,32.43
2023-04-17T02:30:15.891Z,31.70
2023-04-17T02:32:45.854Z,34.57
2023-04-17T02:35:18.980Z,32.37
2023-04-17T02:37:47.980Z,32.17
2023-04-17T02:40:17.257Z,32.47
2023-04-17T02:42:46.460Z,30.63
2023-04-17T02:45:15.761Z,30.87
2023-04-17T02:47:44.827Z,34.33
2023-04-17T02:50:14.066Z,32.07
2023-04-17T02:52:44.522Z,32.77
2023-04-17T02:55:13.488Z,33.23
2023-04-17T02:57:42.775Z,31.97
2023-04-17T03:00:15.190Z,33.03
2023-04-17T03:02:44.540Z,32.13
2023-04-17T03:05:15.302Z,33.80
2023-04-17T03:07:45.761Z,34.30
2023-04-17T03:10:14.921Z,33.00
2023-04-17T03:12:44.135Z,35.30
2023-04-17T03:15:14.628Z,35.13
2023-04-17T03:17:43.580Z,32.27
2023-04-17T03:20:13.258Z,32.50
2023-04-17T03:22:42.338Z,33.43
2023-04-17T03:25:12.990Z,31.90
2023-04-17T03:27:41.986Z,32.27
2023-04-17T03:30:11.907Z,32.30
2023-04-17T03:32:41.159Z,33.97
2023-04-17T03:35:10.613Z,34.03
2023-04-17T03:37:39.465Z,34.27
2023-04-17T03:40:11.987Z,34.60
2023-04-17T03:42:42.688Z,34.47
2023-04-17T03:45:12.661Z,33.80
2023-04-17T03:47:42.049Z,34.27
2023-04-17T03:50:11.432Z,34.60
2023-04-17T03:52:40.413Z,37.40
2023-04-17T03:55:10.059Z,35.53
2023-04-17T03:57:41.089Z,35.40
2023-04-17T04:00:12.408Z,32.60
2023-04-17T04:02:41.413Z,34.33
2023-04-17T04:05:10.660Z,36.57
2023-04-17T04:07:39.519Z,35.87
2023-04-17T04:10:09.920Z,34.87
2023-04-17T04:12:40.213Z,36.10
2023-04-17T04:15:10.540Z,37.00
2023-04-17T04:17:39.347Z,35.37
2023-04-17T04:20:09.600Z,34.37
2023-04-17T04:22:38.767Z,36.87
2023-04-17T04:25:09.000Z,35.37
2023-04-17T04:27:37.990Z,36.17
2023-04-17T04:30:10.344Z,35.70
2023-04-17T04:48:13.883Z,39.10
2023-04-17T04:50:42.344Z,36.70
2023-04-17T04:53:10.781Z,38.27
2023-04-17T04:55:39.263Z,37.23
2023-04-17T04:58:07.623Z,39.33
2023-04-17T05:00:36.092Z,37.37
2023-04-17T05:03:05.347Z,35.83
2023-04-17T05:05:36.018Z,38.60
2023-04-17T05:08:04.470Z,38.87
2023-04-17T05:10:33.076Z,38.07
2023-04-17T05:13:01.596Z,36.63
2023-04-17T05:15:30.075Z,38.57
2023-04-17T05:17:59.074Z,37.57
2023-04-17T05:20:27.553Z,37.37
2023-04-17T05:23:00.427Z,36.53
2023-04-17T05:25:28.884Z,38.03
2023-04-17T05:27:57.622Z,36.87
2023-04-17T05:30:26.209Z,38.80
2023-04-17T05:32:54.876Z,37.27
2023-04-17T05:35:23.597Z,39.17
2023-04-17T05:37:52.682Z,39.73
2023-04-17T05:40:22.633Z,39.77
2023-04-17T05:42:51.308Z,38.03
2023-04-17T05:45:19.967Z,40.13
2023-04-17T05:47:48.418Z,39.07
2023-04-17T05:50:16.843Z,42.43
2023-04-17T05:52:48.461Z,41.27
2023-04-17T05:55:17.029Z,41.63
2023-04-17T05:57:50.394Z,42.70
2023-04-17T06:00:22.788Z,42.37
2023-04-17T06:02:52.447Z,43.27
2023-04-17T06:05:22.035Z,42.60
2023-04-17T06:07:50.671Z,42.37
2023-04-17T06:10:19.716Z,43.77
2023-04-17T06:12:49.720Z,40.70
2023-04-17T06:15:18.414Z,41.33
2023-04-17T06:17:46.912Z,41.73
2023-04-17T06:20:15.636Z,39.57
2023-04-17T06:22:46.967Z,39.53
2023-04-17T06:25:15.385Z,38.70
2023-04-17T06:27:43.934Z,41.03
2023-04-17T06:30:15.168Z,45.60
2023-04-17T06:32:44.243Z,42.43
2023-04-17T06:35:12.821Z,43.77
2023-04-17T06:37:41.425Z,42.97
2023-04-17T06:40:12.560Z,52.40
2023-04-17T06:42:41.245Z,43.10
2023-04-17T06:45:10.923Z,44.37
2023-04-17T06:47:42.687Z,43.57
2023-04-17T06:50:11.929Z,41.60
2023-04-17T06:52:40.441Z,41.13
2023-04-17T06:55:10.284Z,41.03
2023-04-17T06:57:39.399Z,40.53
2023-04-17T07:00:09.363Z,39.33
2023-04-17T07:02:38.091Z,40.80
2023-04-17T07:05:10.133Z,39.03
2023-04-17T07:07:39.991Z,39.63
2023-04-17T07:10:11.339Z,38.23
2023-04-17T07:12:40.610Z,42.10
2023-04-17T07:15:10.956Z,37.13
2023-04-17T07:17:40.989Z,37.33
2023-04-17T07:20:12.554Z,36.40
2023-04-17T07:22:41.731Z,43.60
2023-04-17T07:25:10.502Z,40.30
2023-04-17T07:27:39.533Z,36.13
2023-04-17T07:30:10.007Z,35.97
2023-04-17T07:32:41.914Z,36.33
2023-04-17T07:35:12.090Z,34.27
2023-04-17T07:37:41.994Z,33.40
2023-04-17T07:40:12.130Z,33.50
2023-04-17T07:42:40.870Z,32.87
2023-04-17T07:45:10.827Z,32.30
2023-04-17T07:47:39.473Z,32.13
2023-04-17T07:50:09.415Z,30.63
2023-04-17T07:52:44.184Z,29.60
2023-04-17T07:55:12.903Z,29.00
2023-04-17T07:57:43.042Z,29.27
2023-04-17T08:00:16.745Z,28.17
2023-04-17T08:02:46.290Z,27.27
2023-04-17T08:05:15.075Z,27.10
2023-04-17T08:07:45.450Z,27.90
2023-04-17T08:10:16.641Z,27.13
2023-04-17T08:12:45.383Z,26.03
2023-04-17T08:15:13.927Z,26.13
2023-04-17T08:17:42.578Z,24.30
2023-04-17T08:20:12.201Z,24.10
2023-04-17T08:22:42.923Z,25.93
2023-04-17T08:25:14.135Z,24.30
2023-04-17T08:27:45.511Z,25.10
2023-04-17T08:30:18.857Z,23.57
2023-04-17T08:32:50.378Z,23.17
2023-04-17T08:35:19.436Z,22.90
2023-04-17T08:37:51.210Z,21.30
2023-04-17T08:40:23.680Z,21.67
2023-04-17T08:42:53.570Z,20.03
2023-04-17T08:45:24.414Z,20.63
2023-04-17T08:47:55.977Z,19.70
2023-04-17T08:50:26.119Z,19.57
2023-04-17T08:52:55.231Z,19.07
2023-04-17T08:55:29.226Z,18.90
2023-04-17T08:58:04.161Z,18.97
2023-04-17T09:00:34.596Z,18.83
2023-04-17T09:03:05.189Z,17.70
2023-04-17T09:05:44.790Z,17.93
2023-04-17T09:08:17.135Z,17.03
2023-04-17T09:10:48.834Z,17.50
2023-04-17T09:13:18.953Z,17.33
2023-04-17T09:16:04.492Z,17.30
2023-04-17T09:18:34.031Z,17.30
2023-04-17T09:21:04.485Z,15.33
2023-04-17T09:23:46.892Z,15.00
2023-04-17T09:26:18.448Z,14.77
2023-04-17T09:29:14.894Z,15.13
2023-04-17T09:31:45.389Z,14.63
2023-04-17T09:34:16.664Z,13.90
2023-04-17T09:36:45.920Z,13.17
2023-04-17T09:39:21.069Z,13.17
2023-04-17T09:41:51.408Z,13.57
2023-04-17T09:44:28.339Z,13.17
2023-04-17T09:46:57.882Z,13.77
2023-04-17T09:49:35.043Z,13.53
2023-04-17T09:52:04.879Z,13.30
2023-04-17T09:54:38.137Z,13.67
2023-04-17T09:57:13.311Z,14.50
2023-04-17T09:59:45.289Z,14.37
2023-04-17T10:02:15.684Z,14.10
2023-04-17T10:04:45.327Z,14.10
2023-04-17T10:07:14.852Z,13.13
2023-04-17T10:09:45.921Z,13.37
2023-04-17T10:12:19.016Z,13.00
2023-04-17T10:14:51.509Z,13.73
2023-04-17T10:17:29.094Z,13.57
2023-04-17T10:19:57.829Z,13.07
2023-04-17T10:22:41.503Z,13.37
2023-04-17T10:25:24.650Z,12.73
2023-04-17T10:27:59.053Z,12.33
2023-04-17T10:30:51.523Z,12.10
2023-04-17T10:33:27.441Z,11.77
2023-04-17T10:35:57.648Z,11.73
2023-04-17T10:38:37.824Z,11.73
2023-04-17T10:41:11.942Z,11.33
2023-04-17T10:43:46.825Z,11.60
2023-04-17T10:46:17.610Z,12.00
2023-04-17T10:48:52.410Z,11.17
2023-04-17T10:51:43.869Z,11.23
2023-04-17T10:54:15.994Z,9.20
2023-04-17T10:56:48.759Z,9.63
2023-04-17T10:59:19.612Z,10.67
2023-04-17T11:02:01.397Z,9.50
2023-04-17T11:04:32.185Z,9.00
2023-04-17T11:07:02.702Z,9.97
2023-04-17T11:09:31.867Z,8.57
2023-04-17T11:12:03.168Z,7.63
2023-04-17T11:14:33.629Z,10.33
2023-04-17T11:17:04.499Z,9.83
2023-04-17T11:19:37.078Z,8.07
2023-04-17T11:22:05.962Z,6.70
2023-04-17T11:24:34.730Z,6.47
2023-04-17T11:27:05.567Z,6.07
2023-04-17T11:29:36.467Z,6.43
2023-04-17T11:32:06.157Z,6.97
2023-04-17T11:34:35.268Z,6.40
2023-04-17T11:37:05.167Z,6.17
2023-04-17T11:39:34.921Z,6.43
2023-04-17T11:42:04.239Z,6.23
2023-04-17T11:44:32.990Z,5.83
2023-04-17T11:47:04.377Z,6.00
2023-04-17T11:49:34.393Z,6.20
2023-04-17T11:52:04.433Z,5.90
2023-04-17T11:54:36.198Z,5.47
2023-04-17T11:57:07.581Z,7.40
2023-04-17T11:59:45.225Z,5.57
2023-04-17T12:02:17.133Z,5.70
2023-04-17T12:04:46.291Z,6.73
2023-04-17T12:07:25.149Z,7.13
2023-04-17T12:09:58.304Z,6.60
2023-04-17T12:12:29.824Z,6.77
2023-04-17T12:14:59.305Z,6.20
2023-04-17T12:17:29.740Z,6.93
2023-04-17T12:20:02.569Z,7.33
2023-04-17T12:22:31.272Z,7.77
2023-04-17T12:25:00.258Z,7.73
2023-04-17T12:27:29.300Z,7.80
2023-04-17T12:29:58.161Z,7.10
2023-04-17T12:32:28.565Z,7.50
2023-04-17T12:34:57.271Z,7.63
2023-04-17T12:37:27.128Z,7.47
2023-04-17T12:39:56.572Z,7.40
2023-04-17T12:42:29.638Z,7.20
2023-04-17T12:44:59.995Z,7.13
2023-04-17T12:47:32.515Z,6.77
2023-04-17T12:50:01.162Z,6.73
2023-04-17T12:52:29.869Z,8.00
2023-04-17T12:55:01.484Z,6.70
2023-04-17T12:57:34.023Z,6.80
2023-04-17T13:00:03.980Z,6.43
2023-04-17T13:02:34.533Z,6.57
2023-04-17T13:05:04.989Z,6.27
2023-04-17T13:07:34.668Z,7.20
2023-04-17T13:10:04.459Z,6.63
2023-04-17T13:12:36.427Z,6.37
2023-04-17T13:15:08.351Z,6.60
2023-04-17T13:17:40.508Z,8.10
2023-04-17T13:20:10.063Z,8.30
2023-04-17T13:22:41.243Z,7.83
2023-04-17T13:25:11.028Z,8.30
2023-04-17T13:27:39.582Z,7.00
2023-04-17T13:30:09.721Z,7.00
2023-04-17T13:32:40.744Z,6.67
2023-04-17T13:35:13.363Z,6.80
2023-04-17T13:37:42.428Z,6.20
2023-04-17T13:40:12.247Z,6.77
2023-04-17T13:42:41.807Z,6.90
2023-04-17T13:45:14.454Z,7.07
2023-04-17T13:47:44.843Z,6.93
2023-04-17T13:50:14.948Z,7.00
2023-04-17T13:52:43.506Z,6.57
2023-04-17T13:55:17.733Z,6.00
2023-04-17T13:57:46.899Z,6.70
2023-04-17T14:00:19.117Z,5.97
2023-04-17T14:02:49.466Z,6.00
2023-04-17T14:05:19.360Z,6.47
2023-04-17T14:07:48.368Z,6.77
2023-04-17T14:10:20.666Z,6.10
2023-04-17T14:12:51.322Z,6.53
2023-04-17T14:15:20.190Z,6.17
2023-04-17T14:17:52.562Z,6.20
2023-04-17T14:20:22.314Z,6.53
2023-04-17T14:22:51.351Z,6.30
2023-04-17T14:25:20.252Z,6.30
2023-04-17T14:27:48.734Z,6.47
2023-04-17T14:30:17.554Z,6.07
2023-04-17T14:32:46.609Z,6.23
2023-04-17T14:35:18.726Z,5.70
2023-04-17T14:37:47.562Z,6.97
2023-04-17T14:40:16.509Z,7.00
2023-04-17T14:42:54.172Z,7.40
2023-04-17T14:45:23.721Z,6.50
2023-04-17T14:47:52.820Z,6.60
2023-04-17T14:50:23.513Z,6.33
2023-04-17T14:52:52.358Z,6.87
2023-04-17T14:55:21.696Z,6.93
2023-04-17T14:57:54.153Z,6.40
2023-04-17T15:00:23.792Z,6.93
2023-04-17T15:02:52.610Z,6.27
2023-04-17T15:05:23.204Z,6.20
2023-04-17T15:07:52.052Z,6.20
2023-04-17T15:10:20.690Z,6.33
2023-04-17T15:12:50.284Z,6.13
2023-04-17T15:15:20.298Z,6.40
2023-04-17T15:17:51.838Z,6.70
2023-04-17T15:20:25.251Z,6.20
2023-04-17T15:22:57.941Z,6.33
2023-04-17T15:25:34.380Z,6.57
2023-04-17T15:28:03.141Z,6.37
2023-04-17T15:30:41.092Z,5.97
2023-04-17T15:33:10.461Z,5.77
2023-04-17T15:35:39.251Z,6.93
2023-04-17T15:38:10.086Z,6.90
2023-04-17T15:40:38.985Z,6.87
2023-04-17T15:43:07.639Z,7.27
2023-04-17T15:45:36.401Z,6.63
2023-04-17T15:48:06.582Z,6.73
2023-04-17T15:50:35.611Z,6.40
2023-04-17T15:53:04.602Z,6.90
2023-04-17T15:55:36.810Z,6.80
2023-04-17T15:58:08.908Z,6.27
2023-04-17T16:00:40.096Z,6.87
2023-04-17T16:03:12.072Z,6.30
2023-04-17T16:05:41.221Z,6.67
2023-04-17T16:08:10.682Z,6.80
2023-04-17T16:10:41.141Z,6.50
2023-04-17T16:13:09.901Z,6.33
2023-04-17T16:15:38.941Z,6.77
2023-04-17T16:18:10.562Z,6.27
2023-04-17T16:20:40.215Z,6.37
2023-04-17T16:23:09.774Z,6.33
2023-04-17T16:25:40.706Z,6.70
2023-04-17T16:28:09.960Z,6.83
2023-04-17T16:30:39.624Z,7.07
2023-04-17T16:33:08.267Z,6.37
2023-04-17T16:35:38.088Z,7.47
2023-04-17T16:38:07.261Z,7.37
2023-04-17T16:40:40.985Z,8.03
2023-04-17T16:43:13.107Z,7.20
2023-04-17T16:45:42.176Z,8.10
2023-04-17T16:48:12.968Z,7.37
2023-04-17T16:50:41.816Z,7.53
2023-04-17T16:53:11.708Z,7.77
2023-04-17T16:55:43.345Z,7.63
2023-04-17T16:58:12.567Z,7.60
2023-04-17T17:00:41.834Z,7.47
2023-04-17T17:03:10.989Z,7.90
2023-04-17T17:05:40.402Z,8.07
2023-04-17T17:08:09.146Z,7.90
2023-04-17T17:10:37.747Z,7.87
2023-04-17T17:13:13.002Z,8.10
2023-04-17T17:15:43.961Z,7.27
2023-04-17T17:18:13.189Z,7.00
2023-04-17T17:20:42.091Z,7.33
2023-04-17T17:23:11.068Z,8.17
2023-04-17T17:25:40.222Z,8.00
2023-04-17T17:28:10.510Z,8.03
2023-04-17T17:30:41.607Z,7.20
2023-04-17T17:33:12.716Z,7.83
2023-04-17T17:35:42.333Z,7.10
2023-04-17T17:38:12.016Z,7.83
2023-04-17T17:40:41.184Z,8.43
2023-04-17T17:43:12.701Z,8.03
2023-04-17T17:45:44.645Z,8.50
2023-04-17T17:48:15.723Z,7.47
2023-04-17T17:50:44.990Z,7.83
2023-04-17T17:53:13.943Z,7.77
2023-04-17T17:55:53.055Z,7.27
2023-04-17T17:58:24.274Z,7.00
2023-04-17T18:00:56.859Z,7.63
2023-04-17T18:03:26.107Z,6.70
2023-04-17T18:06:00.658Z,7.00
2023-04-17T18:08:29.439Z,6.77
2023-04-17T18:10:58.688Z,7.17
2023-04-17T18:13:28.930Z,8.47
2023-04-17T18:15:57.745Z,7.40
2023-04-17T18:18:29.503Z,8.53
2023-04-17T18:21:01.772Z,8.57
2023-04-17T18:23:37.465Z,8.57
2023-04-17T18:26:08.702Z,8.47
2023-04-17T18:28:49.644Z,8.73
2023-04-17T18:31:21.307Z,9.07
2023-04-17T18:33:50.587Z,8.43
2023-04-17T18:36:22.758Z,9.67
2023-04-17T18:38:51.517Z,9.33
2023-04-17T18:41:21.869Z,9.47
2023-04-17T18:43:53.076Z,8.73
2023-04-17T18:46:28.489Z,8.37
2023-04-17T18:48:57.448Z,9.07
2023-04-17T18:51:26.411Z,9.37
2023-04-17T18:53:55.382Z,8.73
2023-04-17T18:56:26.827Z,8.57
2023-04-17T18:58:57.444Z,9.13
2023-04-17T19:01:28.925Z,9.60
2023-04-17T19:03:57.923Z,9.07
2023-04-17T19:06:26.961Z,9.20
2023-04-17T19:08:57.160Z,9.37
2023-04-17T19:11:31.407Z,8.97
2023-04-17T19:14:01.855Z,9.80
2023-04-17T19:16:31.107Z,18.40
2023-04-17T19:18:59.863Z,13.33
2023-04-17T19:21:31.336Z,9.63
2023-04-17T19:24:00.742Z,12.07
2023-04-17T19:26:29.489Z,10.13
2023-04-17T19:29:07.365Z,14.47
2023-04-17T19:31:41.640Z,11.13
2023-04-17T19:34:11.576Z,11.10
2023-04-17T19:36:45.627Z,11.50
2023-04-17T19:39:15.285Z,11.60
2023-04-17T19:41:50.949Z,16.23
2023-04-17T19:44:25.996Z,12.87
2023-04-17T19:46:59.614Z,12.90
2023-04-17T19:49:28.905Z,16.20
2023-04-17T19:51:59.423Z,13.97
2023-04-17T19:54:29.958Z,10.27
2023-04-17T19:57:01.914Z,11.13
2023-04-17T19:59:32.253Z,11.43
2023-04-17T20:02:04.153Z,10.60
2023-04-17T20:04:33.399Z,10.40
2023-04-17T20:07:02.674Z,10.70
2023-04-17T20:09:31.836Z,11.17
2023-04-17T20:12:01.140Z,10.90
2023-04-17T20:14:30.043Z,11.93
2023-04-17T20:17:00.822Z,11.30
2023-04-17T20:19:30.040Z,11.63
2023-04-17T20:21:59.266Z,11.60
2023-04-17T20:24:28.263Z,11.13
2023-04-17T20:27:03.228Z,11.47
2023-04-17T20:29:33.478Z,11.10
2023-04-17T20:32:04.301Z,10.83
2023-04-17T20:34:35.575Z,10.70
2023-04-17T20:37:04.400Z,10.70
2023-04-17T20:39:34.036Z,11.13
2023-04-17T20:42:03.254Z,11.07
2023-04-17T20:44:33.332Z,11.90
2023-04-17T20:47:04.919Z,11.60
2023-04-17T20:49:39.246Z,11.77
2023-04-17T20:52:09.194Z,12.47
2023-04-17T20:54:38.573Z,11.97
2023-04-17T20:57:13.861Z,12.17
2023-04-17T20:59:47.578Z,11.67
2023-04-17T21:02:19.003Z,11.77
2023-04-17T21:04:48.539Z,11.70
2023-04-17T21:07:20.847Z,11.23
2023-04-17T21:09:50.989Z,11.03
2023-04-17T21:12:19.933Z,11.00
2023-04-17T21:14:53.206Z,11.17
2023-04-17T21:17:24.248Z,11.40
2023-04-17T21:19:55.920Z,11.27
2023-04-17T21:22:24.648Z,11.27
2023-04-17T21:24:54.998Z,11.90
2023-04-17T21:27:23.787Z,10.80
2023-04-17T21:29:53.356Z,10.53
2023-04-17T21:32:26.969Z,9.57
2023-04-17T21:34:55.973Z,10.23
2023-04-17T21:37:25.067Z,10.00
2023-04-17T21:39:53.719Z,10.50
2023-04-17T21:42:23.339Z,9.43
2023-04-17T21:44:52.003Z,9.73
2023-04-17T21:47:30.129Z,9.13
2023-04-17T21:50:00.757Z,8.60
2023-04-17T21:52:29.840Z,8.87
2023-04-17T21:55:03.530Z,7.67
2023-04-17T21:57:33.561Z,8.00
2023-04-17T22:00:04.706Z,7.40
2023-04-17T22:02:33.557Z,7.03
2023-04-17T22:05:04.482Z,7.13
2023-04-17T22:07:40.672Z,7.03
2023-04-17T22:10:12.897Z,7.20
2023-04-17T22:12:41.744Z,6.93
2023-04-17T22:15:11.563Z,7.07
2023-04-17T22:17:42.878Z,6.60
2023-04-17T22:20:14.436Z,6.80
2023-04-17T22:22:43.375Z,7.43
2023-04-17T22:25:12.010Z,6.90
2023-04-17T22:27:40.630Z,6.93
2023-04-17T22:30:10.076Z,7.10
2023-04-17T22:32:39.057Z,7.67
2023-04-17T22:35:09.660Z,7.30
2023-04-17T22:37:43.828Z,7.33
2023-04-17T22:40:14.072Z,7.50
2023-04-17T22:42:43.237Z,7.70
2023-04-17T22:45:12.367Z,7.47
2023-04-17T22:47:41.325Z,6.90
2023-04-17T22:50:11.166Z,7.73
2023-04-17T22:52:41.056Z,8.23
2023-04-17T22:55:10.036Z,7.83
2023-04-17T22:57:41.247Z,8.10
2023-04-17T23:00:11.120Z,7.13
2023-04-17T23:02:40.021Z,7.20
2023-04-17T23:05:11.117Z,7.47
2023-04-17T23:07:41.452Z,7.90
2023-04-17T23:10:11.486Z,7.70
2023-04-17T23:12:42.614Z,7.60
2023-04-17T23:15:11.977Z,7.13
2023-04-17T23:17:43.646Z,7.23
2023-04-17T23:20:12.912Z,7.77
2023-04-17T23:22:42.878Z,7.20
2023-04-17T23:25:11.932Z,7.67
2023-04-17T23:27:41.359Z,7.27
2023-04-17T23:30:11.468Z,7.37
2023-04-17T23:32:41.910Z,7.07
2023-04-17T23:35:11.304Z,7.87
2023-04-17T23:37:40.018Z,7.63
2023-04-17T23:40:11.264Z,8.00
2023-04-17T23:42:39.715Z,7.70
2023-04-17T23:45:09.614Z,8.07
2023-04-17T23:47:38.428Z,7.73
2023-04-17T23:50:08.487Z,7.73
2023-04-17T23:52:36.993Z,7.50
2023-04-17T23:55:06.755Z,7.30
2023-04-17T23:57:38.138Z,7.77
